createdAt,value
2018-09-04T00:00:42.312Z,4.00
2018-09-04T00:03:09.717Z,5.53
2018-09-04T00:05:37.140Z,3.53
2018-09-04T00:08:04.742Z,4.30
2018-09-04T00:10:32.129Z,3.70
2018-09-04T00:12:59.566Z,4.03
2018-09-04T00:15:26.973Z,3.63
2018-09-04T00:17:54.432Z,3.60
2018-09-04T00:20:21.878Z,4.00
2018-09-04T00:22:49.280Z,3.70
2018-09-04T00:25:16.736Z,4.50
2018-09-04T00:27:44.137Z,4.67
2018-09-04T00:30:11.522Z,5.07
2018-09-04T00:32:38.983Z,4.63
2018-09-04T00:35:06.382Z,4.97
2018-09-04T00:37:33.819Z,5.13
2018-09-04T00:40:01.296Z,6.27
2018-09-04T00:42:28.694Z,6.23
2018-09-04T00:44:56.204Z,5.70
2018-09-04T00:47:23.589Z,6.60
2018-09-04T00:49:51.048Z,6.50
2018-09-04T00:52:18.526Z,7.03
2018-09-04T00:54:45.940Z,6.17
2018-09-04T00:57:13.389Z,6.90
2018-09-04T00:59:40.900Z,6.20
2018-09-04T01:02:08.486Z,6.23
2018-09-04T01:04:35.950Z,6.30
2018-09-04T01:07:03.467Z,6.07
2018-09-04T01:09:30.888Z,7.13
2018-09-04T01:11:58.303Z,5.93
2018-09-04T01:14:25.729Z,6.93
2018-09-04T01:16:53.141Z,6.93
2018-09-04T01:19:20.551Z,6.83
2018-09-04T01:21:47.977Z,7.30
2018-09-04T01:24:15.440Z,6.03
2018-09-04T01:26:42.848Z,5.70
2018-09-04T01:29:10.296Z,5.37
2018-09-04T01:31:37.692Z,5.83
2018-09-04T01:34:05.169Z,5.10
2018-09-04T01:36:32.930Z,5.17
2018-09-04T01:39:00.555Z,5.63
2018-09-04T01:41:27.964Z,5.93
2018-09-04T01:43:55.340Z,5.07
2018-09-04T01:46:22.802Z,4.77
2018-09-04T01:48:51.335Z,5.17
2018-09-04T01:51:18.763Z,5.77
2018-09-04T01:53:46.157Z,5.67
2018-09-04T01:56:13.564Z,6.00
2018-09-04T01:58:40.976Z,5.93
2018-09-04T02:01:08.363Z,5.80
2018-09-04T02:03:35.756Z,5.43
2018-09-04T02:06:03.142Z,5.00
2018-09-04T02:08:30.584Z,5.07
2018-09-04T02:10:58.014Z,4.70
2018-09-04T02:13:25.396Z,5.40
2018-09-04T02:15:52.941Z,5.57
2018-09-04T02:18:20.341Z,5.37
2018-09-04T02:20:47.725Z,5.97
2018-09-04T02:23:15.142Z,5.93
2018-09-04T02:25:42.515Z,5.80
2018-09-04T02:28:09.978Z,5.90
2018-09-04T02:30:37.389Z,6.57
2018-09-04T02:33:05.081Z,6.70
2018-09-04T02:35:32.518Z,6.00
2018-09-04T02:37:59.929Z,5.67
2018-09-04T02:40:27.321Z,5.27
2018-09-04T02:42:54.756Z,4.80
2018-09-04T02:45:22.138Z,6.00
2018-09-04T02:47:49.542Z,5.70
2018-09-04T02:50:16.989Z,7.00
2018-09-04T02:52:44.482Z,5.50
2018-09-04T02:55:11.942Z,5.67
2018-09-04T02:57:39.345Z,5.73
2018-09-04T03:00:08.184Z,6.10
2018-09-04T03:02:35.591Z,5.43
2018-09-04T03:05:03.038Z,4.97
2018-09-04T03:07:31.460Z,5.90
2018-09-04T03:09:58.850Z,5.40
2018-09-04T03:12:26.258Z,5.17
2018-09-04T03:14:53.705Z,5.70
2018-09-04T03:17:21.513Z,5.27
2018-09-04T03:19:48.954Z,5.90
2018-09-04T03:22:16.362Z,6.87
2018-09-04T03:24:43.777Z,6.87
2018-09-04T03:27:11.441Z,7.57
2018-09-04T03:29:38.829Z,7.40
2018-09-04T03:32:06.442Z,7.20
2018-09-04T03:34:33.877Z,7.43
2018-09-04T03:37:01.273Z,7.20
2018-09-04T03:39:28.636Z,7.60
2018-09-04T03:41:56.088Z,7.47
2018-09-04T03:44:23.702Z,7.77
2018-09-04T03:46:51.044Z,7.07
2018-09-04T03:49:18.448Z,6.40
2018-09-04T03:51:45.929Z,6.97
2018-09-04T03:54:13.334Z,6.33
2018-09-04T03:56:40.750Z,6.73
2018-09-04T03:59:08.182Z,6.97
2018-09-04T04:01:35.636Z,7.10
2018-09-04T04:04:03.134Z,7.23
2018-09-04T04:06:30.521Z,6.87
2018-09-04T04:08:57.900Z,5.57
2018-09-04T04:11:25.320Z,5.60
2018-09-04T04:13:52.751Z,6.00
2018-09-04T04:16:20.128Z,5.83
2018-09-04T04:18:47.509Z,6.20
2018-09-04T04:21:14.928Z,6.40
2018-09-04T04:23:42.319Z,6.40
2018-09-04T04:26:09.804Z,6.30
2018-09-04T04:28:37.333Z,5.77
2018-09-04T04:31:04.757Z,5.50
2018-09-04T04:33:32.152Z,6.13
2018-09-04T04:35:59.575Z,5.60
2018-09-04T04:38:27.088Z,6.03
2018-09-04T04:40:54.494Z,6.90
2018-09-04T04:43:21.884Z,6.13
2018-09-04T04:45:49.327Z,6.30
2018-09-04T04:48:16.814Z,6.40
2018-09-04T04:50:44.185Z,6.37
2018-09-04T04:53:11.701Z,5.90
2018-09-04T04:55:39.093Z,5.70
2018-09-04T04:58:06.505Z,5.77
2018-09-04T05:00:33.994Z,5.47
2018-09-04T05:03:01.397Z,5.17
2018-09-04T05:05:28.861Z,4.93
2018-09-04T05:07:56.318Z,5.30
2018-09-04T05:10:23.753Z,4.40
2018-09-04T05:12:51.200Z,4.80
2018-09-04T05:15:18.596Z,5.10
2018-09-04T05:17:46.013Z,5.23
2018-09-04T05:20:17.441Z,5.53
2018-09-04T05:22:44.899Z,5.30
2018-09-04T05:25:12.336Z,6.57
2018-09-04T05:27:39.766Z,7.07
2018-09-04T05:30:07.210Z,6.20
2018-09-04T05:32:44.479Z,6.50
2018-09-04T05:35:13.318Z,6.40
2018-09-04T05:37:41.784Z,6.50
2018-09-04T05:40:09.197Z,6.23
2018-09-04T05:43:12.406Z,5.97
2018-09-04T05:45:40.201Z,6.10
2018-09-04T05:48:09.616Z,5.83
2018-09-04T05:50:37.121Z,5.53
2018-09-04T05:53:04.581Z,5.80
2018-09-04T05:55:31.964Z,5.73
2018-09-04T05:57:59.631Z,5.57
2018-09-04T06:00:29.304Z,5.60
2018-09-04T06:02:56.729Z,5.57
2018-09-04T06:05:24.167Z,6.10
2018-09-04T06:07:51.711Z,5.40
2018-09-04T06:10:19.115Z,5.40
2018-09-04T06:12:46.739Z,5.33
2018-09-04T06:15:14.141Z,5.30
2018-09-04T06:17:41.525Z,5.77
2018-09-04T06:20:09.021Z,5.80
2018-09-04T06:22:36.393Z,6.10
2018-09-04T06:25:04.122Z,5.53
2018-09-04T06:27:31.571Z,6.20
2018-09-04T06:29:58.966Z,5.80
2018-09-04T06:32:26.402Z,5.87
2018-09-04T06:34:53.809Z,5.87
2018-09-04T06:37:21.450Z,5.40
2018-09-04T06:39:48.833Z,6.07
2018-09-04T06:42:16.227Z,5.77
2018-09-04T06:44:43.733Z,5.03
2018-09-04T06:47:11.215Z,4.53
2018-09-04T06:49:38.786Z,5.23
2018-09-04T06:52:06.660Z,4.93
2018-09-04T06:54:34.114Z,4.93
2018-09-04T06:57:01.528Z,5.33
2018-09-04T06:59:28.981Z,5.23
2018-09-04T07:01:56.373Z,5.20
2018-09-04T07:04:23.769Z,5.63
2018-09-04T07:06:51.169Z,5.83
2018-09-04T07:09:18.588Z,6.30
2018-09-04T07:11:46.025Z,5.50
2018-09-04T07:14:13.433Z,6.10
2018-09-04T07:16:41.258Z,5.60
2018-09-04T07:19:09.073Z,5.30
2018-09-04T07:21:36.490Z,5.60
2018-09-04T07:24:03.926Z,5.70
2018-09-04T07:26:31.407Z,5.60
2018-09-04T07:28:58.788Z,5.60
2018-09-04T07:31:26.234Z,5.70
2018-09-04T07:33:53.622Z,5.27
2018-09-04T07:36:21.116Z,5.40
2018-09-04T07:38:48.538Z,5.17
2018-09-04T07:41:15.912Z,5.43
2018-09-04T07:43:43.346Z,4.97
2018-09-04T07:46:10.770Z,4.37
2018-09-04T07:48:39.040Z,4.43
2018-09-04T07:51:06.431Z,4.47
2018-09-04T07:53:33.984Z,4.53
2018-09-04T07:56:01.365Z,3.87
2018-09-04T07:58:28.761Z,3.93
2018-09-04T08:00:56.186Z,4.07
2018-09-04T08:03:23.585Z,4.10
2018-09-04T08:05:51.054Z,3.90
2018-09-04T08:08:18.454Z,3.70
2018-09-04T08:10:45.899Z,3.83
2018-09-04T08:13:13.353Z,3.47
2018-09-04T08:15:40.770Z,3.17
2018-09-04T08:18:08.172Z,2.60
2018-09-04T08:20:35.629Z,2.50
2018-09-04T08:23:02.993Z,2.40
2018-09-04T08:25:30.401Z,2.60
2018-09-04T08:27:57.860Z,2.20
2018-09-04T08:30:25.249Z,2.53
2018-09-04T08:32:52.709Z,2.23
2018-09-04T08:35:20.106Z,2.50
2018-09-04T08:37:47.590Z,2.63
2018-09-04T08:40:15.046Z,2.60
2018-09-04T08:42:42.424Z,2.67
2018-09-04T08:45:09.819Z,2.27
2018-09-04T08:47:37.322Z,2.70
2018-09-04T08:50:04.765Z,2.40
2018-09-04T08:52:32.169Z,2.40
2018-09-04T08:54:59.646Z,2.33
2018-09-04T08:57:27.073Z,2.17
2018-09-04T08:59:54.515Z,2.20
2018-09-04T09:02:21.973Z,2.43
2018-09-04T09:04:50.327Z,2.30
2018-09-04T09:07:17.731Z,2.23
2018-09-04T09:09:45.122Z,2.30
2018-09-04T09:12:12.536Z,2.23
2018-09-04T09:14:39.943Z,2.50
2018-09-04T09:17:08.460Z,2.50
2018-09-04T09:19:35.877Z,2.60
2018-09-04T09:22:03.305Z,2.33
2018-09-04T09:24:30.720Z,2.30
2018-09-04T09:26:58.200Z,2.23
2018-09-04T09:29:25.634Z,2.67
2018-09-04T09:31:53.077Z,2.33
2018-09-04T09:34:20.487Z,2.13
2018-09-04T09:36:48.094Z,2.60
2018-09-04T09:39:15.355Z,2.20
2018-09-04T09:41:42.810Z,2.30
2018-09-04T09:44:10.189Z,2.40
2018-09-04T09:46:37.589Z,2.50
2018-09-04T09:49:05.253Z,2.40
2018-09-04T09:51:32.636Z,2.30
2018-09-04T09:54:00.043Z,2.83
2018-09-04T09:56:27.615Z,2.03
2018-09-04T09:58:54.912Z,2.70
2018-09-04T10:01:28.178Z,2.47
2018-09-04T10:03:57.535Z,2.50
2018-09-04T10:06:24.885Z,2.50
2018-09-04T10:08:52.292Z,2.40
2018-09-04T10:11:19.745Z,2.20
2018-09-04T10:13:47.554Z,1.80
2018-09-04T10:16:15.039Z,2.50
2018-09-04T10:18:42.434Z,2.30
2018-09-04T10:21:09.930Z,2.20
2018-09-04T10:23:37.338Z,2.20
2018-09-04T10:26:04.913Z,2.43
2018-09-04T10:28:32.334Z,2.53
2018-09-04T10:30:59.727Z,2.20
2018-09-04T10:33:27.153Z,2.53
2018-09-04T10:35:54.570Z,2.20
2018-09-04T10:38:25.883Z,2.47
2018-09-04T10:40:59.325Z,2.30
2018-09-04T10:43:28.182Z,2.13
2018-09-04T10:46:01.967Z,3.07
2018-09-04T10:48:29.905Z,2.30
2018-09-04T10:50:57.548Z,2.40
2018-09-04T10:53:24.985Z,2.63
2018-09-04T10:55:52.485Z,2.13
2018-09-04T10:58:19.849Z,2.33
2018-09-04T11:00:47.241Z,2.50
2018-09-04T11:03:14.639Z,2.40
2018-09-04T11:05:42.098Z,2.50
2018-09-04T11:08:09.518Z,2.70
2018-09-04T11:10:36.954Z,2.57
2018-09-04T11:13:04.961Z,2.80
2018-09-04T11:15:32.405Z,2.80
2018-09-04T11:17:59.821Z,2.60
2018-09-04T11:20:27.243Z,2.47
2018-09-04T11:22:54.668Z,2.40
2018-09-04T11:25:22.074Z,2.50
2018-09-04T11:27:49.456Z,2.63
2018-09-04T11:30:16.898Z,2.50
2018-09-04T11:32:44.308Z,2.33
2018-09-04T11:35:11.867Z,2.50
2018-09-04T11:37:39.506Z,2.77
2018-09-04T11:40:07.934Z,2.67
2018-09-04T11:42:35.328Z,2.70
2018-09-04T11:45:02.828Z,2.50
2018-09-04T11:47:30.332Z,2.47
2018-09-04T11:49:57.727Z,2.80
2018-09-04T11:52:25.215Z,2.10
2018-09-04T11:54:52.583Z,2.30
2018-09-04T11:57:20.005Z,2.00
2018-09-04T11:59:47.507Z,2.10
2018-09-04T12:02:20.538Z,1.93
2018-09-04T12:04:47.973Z,2.13
2018-09-04T12:07:15.550Z,2.03
2018-09-04T12:09:42.971Z,2.40
2018-09-04T12:12:14.968Z,2.07
2018-09-04T12:14:42.405Z,2.37
2018-09-04T12:17:09.806Z,2.60
2018-09-04T12:20:54.343Z,2.60
2018-09-04T12:23:21.665Z,2.50
2018-09-04T12:25:50.617Z,2.17
2018-09-04T12:28:18.069Z,2.20
2018-09-04T12:30:45.654Z,2.30
2018-09-04T12:33:13.140Z,2.27
2018-09-04T12:35:40.632Z,2.00
2018-09-04T12:38:09.526Z,2.30
2018-09-04T12:40:36.946Z,2.30
2018-09-04T12:43:04.444Z,2.10
2018-09-04T12:45:37.621Z,2.43
2018-09-04T12:48:05.119Z,2.33
2018-09-04T12:50:32.930Z,2.20
2018-09-04T12:53:00.337Z,2.10
2018-09-04T12:55:27.870Z,2.30
2018-09-04T12:57:55.269Z,2.10
2018-09-04T13:00:22.700Z,2.23
2018-09-04T13:02:50.077Z,2.30
2018-09-04T13:05:18.041Z,2.20
2018-09-04T13:07:45.654Z,2.50
2018-09-04T13:10:13.139Z,2.23
2018-09-04T13:12:40.547Z,2.30
2018-09-04T13:15:08.881Z,2.30
2018-09-04T13:17:36.276Z,2.27
2018-09-04T13:20:03.751Z,2.40
2018-09-04T13:22:31.221Z,2.87
2018-09-04T13:24:58.596Z,2.40
2018-09-04T13:27:26.013Z,2.40
2018-09-04T13:29:53.409Z,2.60
2018-09-04T13:32:20.842Z,2.57
2018-09-04T13:34:48.233Z,2.50
2018-09-04T13:37:15.656Z,2.53
2018-09-04T13:39:43.067Z,2.87
2018-09-04T13:42:10.485Z,2.50
2018-09-04T13:44:37.858Z,2.60
2018-09-04T13:47:05.303Z,2.77
2018-09-04T13:49:33.028Z,2.77
2018-09-04T13:52:00.541Z,2.50
2018-09-04T13:54:28.014Z,2.77
2018-09-04T13:56:55.477Z,2.47
2018-09-04T13:59:22.865Z,2.30
2018-09-04T14:01:50.285Z,2.53
2018-09-04T14:04:17.751Z,2.60
2018-09-04T14:06:45.167Z,2.83
2018-09-04T14:09:12.604Z,2.90
2018-09-04T14:11:40.073Z,2.80
2018-09-04T14:14:07.530Z,2.87
2018-09-04T14:16:43.146Z,3.03
2018-09-04T14:19:02.399Z,2.23
2018-09-04T14:21:29.785Z,2.80
2018-09-04T14:23:57.229Z,2.80
2018-09-04T14:26:24.608Z,2.80
2018-09-04T14:29:06.417Z,2.93
2018-09-04T14:31:19.509Z,2.70
2018-09-04T14:33:46.899Z,2.97
2018-09-04T14:36:14.313Z,2.37
2018-09-04T14:38:41.728Z,2.40
2018-09-04T14:41:09.173Z,2.67
2018-09-04T14:43:36.596Z,2.90
2018-09-04T14:46:04.357Z,2.80
2018-09-04T14:48:31.766Z,2.80
2018-09-04T14:50:59.216Z,2.67
2018-09-04T14:53:26.602Z,2.80
2018-09-04T14:55:54.053Z,2.77
2018-09-04T14:58:21.461Z,2.33
2018-09-04T15:00:48.877Z,2.40
2018-09-04T15:03:16.349Z,2.37
2018-09-04T15:05:44.037Z,2.30
2018-09-04T15:08:11.580Z,3.20
2018-09-04T15:10:39.140Z,2.80
2018-09-04T15:13:06.512Z,2.93
2018-09-04T15:15:33.962Z,2.67
2018-09-04T15:18:01.480Z,2.80
2018-09-04T15:20:29.021Z,3.20
2018-09-04T15:22:56.488Z,2.97
2018-09-04T15:25:24.169Z,2.90
2018-09-04T15:27:51.542Z,3.00
2018-09-04T15:30:18.939Z,2.63
2018-09-04T15:32:46.710Z,2.90
2018-09-04T15:35:14.151Z,2.87
2018-09-04T15:37:41.589Z,2.90
2018-09-04T15:40:09.098Z,2.80
2018-09-04T15:42:36.527Z,2.77
2018-09-04T15:45:04.170Z,2.90
2018-09-04T15:47:31.545Z,2.27
2018-09-04T15:49:58.977Z,3.00
2018-09-04T15:52:26.477Z,2.73
2018-09-04T15:54:53.884Z,2.83
2018-09-04T15:57:21.297Z,2.80
2018-09-04T15:59:48.737Z,3.03
2018-09-04T16:02:16.149Z,2.93
2018-09-04T16:04:43.609Z,2.90
2018-09-04T16:07:11.033Z,2.77
2018-09-04T16:09:38.597Z,2.80
2018-09-04T16:12:05.993Z,2.63
2018-09-04T16:14:33.377Z,2.80
2018-09-04T16:17:00.830Z,2.83
2018-09-04T16:19:28.217Z,2.70
2018-09-04T16:21:55.665Z,2.70
2018-09-04T16:27:40.526Z,2.80
2018-09-04T16:30:07.933Z,2.70
2018-09-04T16:32:35.344Z,2.73
2018-09-04T16:35:02.864Z,2.77
2018-09-04T16:37:30.352Z,2.70
2018-09-04T16:39:57.897Z,2.83
2018-09-04T16:42:25.296Z,2.70
2018-09-04T16:44:52.726Z,2.80
2018-09-04T16:47:20.209Z,2.83
2018-09-04T16:49:47.618Z,2.80
2018-09-04T16:52:15.084Z,2.93
2018-09-04T16:54:42.552Z,2.60
2018-09-04T16:57:10.221Z,2.80
2018-09-04T16:59:37.716Z,3.30
2018-09-04T17:02:05.323Z,3.10
2018-09-04T17:04:32.780Z,3.27
2018-09-04T17:07:00.278Z,3.30
2018-09-04T17:09:27.664Z,3.00
2018-09-04T17:11:55.142Z,3.10
2018-09-04T17:14:22.549Z,3.30
2018-09-04T17:16:49.973Z,2.80
2018-09-04T17:19:17.421Z,3.10
2018-09-04T17:21:44.875Z,3.17
2018-09-04T17:24:12.265Z,3.00
2018-09-04T17:26:39.676Z,3.10
2018-09-04T17:29:07.225Z,2.97
2018-09-04T17:31:34.908Z,3.10
2018-09-04T17:34:02.443Z,2.73
2018-09-04T17:36:30.096Z,3.50
2018-09-04T17:38:57.806Z,2.93
2018-09-04T17:41:25.275Z,3.03
2018-09-04T17:43:53.054Z,3.20
2018-09-04T17:46:20.608Z,3.00
2018-09-04T17:48:48.103Z,3.27
2018-09-04T17:51:15.667Z,3.97
2018-09-04T17:53:43.926Z,3.83
2018-09-04T17:56:11.437Z,3.67
2018-09-04T17:58:38.850Z,3.33
2018-09-04T18:01:06.283Z,3.80
2018-09-04T18:03:33.757Z,3.53
2018-09-04T18:06:01.160Z,3.40
2018-09-04T18:08:28.566Z,3.73
2018-09-04T18:10:55.981Z,3.33
2018-09-04T18:13:23.480Z,3.97
2018-09-04T18:15:50.998Z,3.67
2018-09-04T18:18:18.393Z,4.20
2018-09-04T18:20:45.936Z,3.67
2018-09-04T18:23:13.369Z,3.80
2018-09-04T18:25:40.845Z,3.87
2018-09-04T18:28:08.234Z,3.93
2018-09-04T18:30:36.467Z,3.67
2018-09-04T18:33:03.920Z,3.43
2018-09-04T18:35:31.440Z,3.60
2018-09-04T18:37:58.845Z,3.70
2018-09-04T18:40:26.339Z,4.20
2018-09-04T18:42:53.745Z,4.13
2018-09-04T18:45:32.801Z,4.20
2018-09-04T18:48:00.242Z,4.23
2018-09-04T18:50:27.612Z,4.30
2018-09-04T18:52:55.097Z,4.13
2018-09-04T18:55:22.489Z,3.40
2018-09-04T18:57:49.898Z,2.50
2018-09-04T19:00:17.797Z,3.47
2018-09-04T19:02:45.185Z,2.70
2018-09-04T19:05:12.674Z,3.77
2018-09-04T19:07:40.088Z,3.90
2018-09-04T19:10:07.546Z,3.03
2018-09-04T19:12:35.028Z,15.33
2018-09-04T19:15:02.439Z,4.60
2018-09-04T19:17:30.034Z,3.23
2018-09-04T19:19:57.494Z,3.50
2018-09-04T19:22:24.901Z,3.50
2018-09-04T19:24:52.514Z,3.10
2018-09-04T19:27:19.957Z,3.10
2018-09-04T19:29:47.365Z,2.20
2018-09-04T19:32:14.747Z,3.83
2018-09-04T19:34:42.197Z,4.33
2018-09-04T19:37:09.633Z,2.57
2018-09-04T19:39:37.031Z,1.57
2018-09-04T19:42:04.512Z,1.53
2018-09-04T19:44:31.916Z,3.20
2018-09-04T19:46:59.834Z,3.67
2018-09-04T19:49:27.290Z,2.30
2018-09-04T19:51:54.706Z,4.27
2018-09-04T19:54:22.162Z,4.60
2018-09-04T19:56:49.605Z,4.10
2018-09-04T19:59:17.056Z,4.40
2018-09-04T20:01:44.702Z,4.87
2018-09-04T20:04:12.125Z,5.13
2018-09-04T20:06:39.676Z,6.03
2018-09-04T20:09:07.139Z,6.43
2018-09-04T20:11:34.693Z,6.47
2018-09-04T20:14:02.193Z,2.60
2018-09-04T20:16:29.592Z,3.70
2018-09-04T20:18:57.008Z,6.63
2018-09-04T20:21:24.497Z,16.90
2018-09-04T20:23:51.902Z,4.97
2018-09-04T20:26:19.322Z,9.00
2018-09-04T20:28:46.727Z,3.20
2018-09-04T20:31:14.208Z,3.57
2018-09-04T20:33:41.585Z,3.70
2018-09-04T20:36:08.996Z,3.30
2018-09-04T20:38:36.669Z,3.67
2018-09-04T20:41:04.291Z,3.30
2018-09-04T20:43:31.729Z,3.90
2018-09-04T20:45:59.156Z,4.10
2018-09-04T20:48:26.597Z,3.73
2018-09-04T20:50:54.053Z,4.27
2018-09-04T20:53:21.478Z,3.67
2018-09-04T20:55:49.087Z,10.73
2018-09-04T20:58:28.000Z,12.77
2018-09-04T21:01:07.147Z,13.10
2018-09-04T21:03:46.060Z,4.87
2018-09-04T21:06:24.876Z,8.70
2018-09-04T21:09:01.981Z,4.33
2018-09-04T21:11:29.490Z,4.37
2018-09-04T21:13:56.913Z,4.30
2018-09-04T21:16:24.337Z,3.97
2018-09-04T21:18:51.765Z,3.30
2018-09-04T21:21:19.517Z,6.40
2018-09-04T21:23:47.013Z,3.50
2018-09-04T21:26:14.417Z,2.83
2018-09-04T21:28:41.884Z,2.90
2018-09-04T21:31:09.297Z,3.20
2018-09-04T21:33:36.721Z,4.17
2018-09-04T21:36:04.168Z,3.47
2018-09-04T21:38:31.600Z,4.00
2018-09-04T21:40:59.045Z,4.23
2018-09-04T21:43:26.454Z,4.30
2018-09-04T21:45:53.920Z,4.47
2018-09-04T21:48:21.313Z,3.90
2018-09-04T21:50:48.738Z,3.70
2018-09-04T21:53:16.480Z,3.67
2018-09-04T21:55:43.882Z,3.80
2018-09-04T21:58:11.288Z,3.77
2018-09-04T22:00:38.678Z,3.07
2018-09-04T22:03:08.000Z,4.33
2018-09-04T22:05:35.886Z,3.40
2018-09-04T22:08:04.183Z,3.77
2018-09-04T22:10:31.590Z,3.33
2018-09-04T22:12:59.005Z,3.93
2018-09-04T22:15:26.477Z,3.47
2018-09-04T22:17:53.905Z,3.27
2018-09-04T22:20:21.358Z,3.37
2018-09-04T22:22:48.812Z,4.00
2018-09-04T22:25:16.336Z,3.93
2018-09-04T22:27:43.752Z,4.03
2018-09-04T22:30:11.371Z,4.13
2018-09-04T22:32:39.112Z,3.90
2018-09-04T22:35:06.520Z,4.27
2018-09-04T22:37:34.200Z,4.50
2018-09-04T22:40:01.614Z,4.00
2018-09-04T22:42:29.017Z,4.60
2018-09-04T22:44:56.445Z,4.07
2018-09-04T22:47:23.866Z,13.10
2018-09-04T22:49:57.026Z,2.70
2018-09-04T22:52:30.573Z,7.00
2018-09-04T22:55:01.358Z,2.43
2018-09-04T22:57:29.009Z,3.00
2018-09-04T22:59:56.408Z,3.30
2018-09-04T23:02:23.808Z,3.33
2018-09-04T23:04:51.459Z,3.70
2018-09-04T23:07:18.917Z,3.97
2018-09-04T23:09:46.309Z,2.73
2018-09-04T23:12:14.156Z,3.07
2018-09-04T23:14:41.618Z,3.07
2018-09-04T23:17:09.004Z,3.77
2018-09-04T23:19:36.397Z,3.17
2018-09-04T23:22:03.852Z,2.90
2018-09-04T23:24:31.247Z,3.57
2018-09-04T23:26:58.639Z,4.60
2018-09-04T23:29:26.046Z,4.07
2018-09-04T23:31:53.508Z,3.57
2018-09-04T23:34:20.902Z,5.90
2018-09-04T23:36:48.304Z,4.00
2018-09-04T23:39:15.723Z,4.00
2018-09-04T23:41:43.215Z,3.63
2018-09-04T23:44:10.652Z,3.20
2018-09-04T23:46:38.076Z,3.50
2018-09-04T23:49:06.079Z,3.50
2018-09-04T23:51:33.505Z,2.80
2018-09-04T23:54:00.912Z,3.20
2018-09-04T23:56:28.342Z,3.60
2018-09-04T23:58:55.797Z,2.33
